createdAt,value
2022-09-05T00:00:14.424Z,13.4
2022-09-05T00:01:29.394Z,13.4
2022-09-05T00:02:11.048Z,13.4
2022-09-05T00:03:15.107Z,13.4
2022-09-05T00:04:29.981Z,13.4
2022-09-05T00:05:11.681Z,13.4
2022-09-05T00:06:20.538Z,13.4
2022-09-05T00:07:06.766Z,13.4
2022-09-05T00:08:16.596Z,13.3
2022-09-05T00:09:14.916Z,13.3
2022-09-05T00:10:10.073Z,13.3
2022-09-05T00:11:46.608Z,13.3
2022-09-05T00:13:16.816Z,13.2
2022-09-05T00:14:16.409Z,13.3
2022-09-05T00:15:21.573Z,13.3
2022-09-05T00:16:08.829Z,13.3
2022-09-05T00:17:18.789Z,13.2
2022-09-05T00:25:00.611Z,13.2
2022-09-05T00:25:07.096Z,13.2
2022-09-05T00:26:09.197Z,13.2
2022-09-05T00:27:18.496Z,13.1
2022-09-05T00:28:30.926Z,13.1
2022-09-05T00:30:33.363Z,13.2
2022-09-05T00:31:59.172Z,13.2
2022-09-05T00:32:00.882Z,13.1
2022-09-05T00:33:21.504Z,13.1
2022-09-05T00:34:16.931Z,13
2022-09-05T00:35:18.991Z,13.1
2022-09-05T00:36:07.141Z,13.1
2022-09-05T00:37:07.669Z,13.1
2022-09-05T00:38:19.101Z,13
2022-09-05T00:39:14.458Z,13
2022-09-05T00:40:22.804Z,12.9
2022-09-05T00:41:16.302Z,12.9
2022-09-05T00:42:17.440Z,12.9
2022-09-05T00:43:16.459Z,12.9
2022-09-05T00:44:20.574Z,12.9
2022-09-05T00:45:21.693Z,12.9
2022-09-05T00:46:16.894Z,12.9
2022-09-05T00:47:09.096Z,12.9
2022-09-05T00:48:17.286Z,12.9
2022-09-05T00:49:12.658Z,12.9
2022-09-05T00:50:17.354Z,12.8
2022-09-05T00:51:09.742Z,12.8
2022-09-05T00:52:17.953Z,12.9
2022-09-05T00:53:16.033Z,12.9
2022-09-05T00:54:37.471Z,13
2022-09-05T00:55:11.867Z,12.9
2022-09-05T00:56:09.599Z,12.9
2022-09-05T00:57:20.278Z,12.8
2022-09-05T00:58:17.489Z,12.8
2022-09-05T00:59:15.059Z,12.9
2022-09-05T01:00:20.324Z,12.9
2022-09-05T01:01:25.173Z,12.9
2022-09-05T01:02:16.340Z,12.8
2022-09-05T01:03:12.695Z,12.8
2022-09-05T01:04:18.812Z,12.9
2022-09-05T01:05:10.440Z,12.9
2022-09-05T01:06:17.344Z,12.9
2022-09-05T01:07:12.285Z,12.9
2022-09-05T01:08:23.041Z,12.9
2022-09-05T01:09:12.073Z,12.9
2022-09-05T01:10:09.835Z,12.9
2022-09-05T01:11:15.298Z,12.9
2022-09-05T01:12:14.422Z,12.9
2022-09-05T01:13:15.409Z,12.8
2022-09-05T01:14:15.199Z,12.9
2022-09-05T01:15:19.572Z,12.9
2022-09-05T01:16:09.345Z,12.9
2022-09-05T01:17:18.915Z,12.9
2022-09-05T01:18:09.319Z,12.9
2022-09-05T01:19:22.794Z,13.1
2022-09-05T01:20:23.599Z,13.1
2022-09-05T01:21:15.695Z,13
2022-09-05T01:22:07.501Z,13
2022-09-05T01:23:16.836Z,13.2
2022-09-05T01:24:12.449Z,13.2
2022-09-05T01:25:15.367Z,13
2022-09-05T01:26:16.328Z,13
2022-09-05T01:27:16.327Z,13
2022-09-05T01:29:21.921Z,13
2022-09-05T01:29:22.829Z,13.1
2022-09-05T01:30:08.823Z,12.9
2022-09-05T01:31:17.189Z,12.8
2022-09-05T01:32:09.619Z,12.8
2022-09-05T01:33:17.830Z,12.9
2022-09-05T01:34:18.566Z,12.8
2022-09-05T01:35:10.049Z,12.8
2022-09-05T01:36:16.616Z,12.6
2022-09-05T01:37:36.269Z,12.6
2022-09-05T01:38:15.352Z,12.6
2022-09-05T01:40:18.749Z,12.5
2022-09-05T01:40:19.683Z,12.6
2022-09-05T01:41:23.699Z,12.6
2022-09-05T01:42:15.118Z,12.7
2022-09-05T01:43:18.596Z,12.7
2022-09-05T01:44:11.942Z,12.7
2022-09-05T01:45:17.478Z,12.7
2022-09-05T01:46:16.863Z,12.7
2022-09-05T01:47:33.726Z,12.7
2022-09-05T01:48:08.431Z,12.6
2022-09-05T01:49:12.535Z,12.6
2022-09-05T01:50:12.367Z,12.7
2022-09-05T01:51:33.852Z,12.7
2022-09-05T01:52:14.266Z,12.7
2022-09-05T01:53:15.660Z,12.6
2022-09-05T01:54:32.431Z,12.6
2022-09-05T01:55:11.077Z,12.6
2022-09-05T01:56:16.418Z,12.8
2022-09-05T01:57:13.121Z,12.8
2022-09-05T01:58:16.211Z,12.6
2022-09-05T01:59:15.004Z,12.6
2022-09-05T02:00:17.772Z,12.6
2022-09-05T02:01:36.246Z,12.7
2022-09-05T02:02:09.874Z,12.7
2022-09-05T02:03:15.979Z,12.6
2022-09-05T02:04:17.590Z,12.6
2022-09-05T02:05:16.940Z,12.7
2022-09-05T02:06:15.364Z,12.7
2022-09-05T02:07:34.499Z,12.8
2022-09-05T02:08:12.015Z,12.8
2022-09-05T02:09:14.287Z,12.8
2022-09-05T02:10:12.641Z,12.8
2022-09-05T02:11:15.488Z,12.9
2022-09-05T02:12:10.048Z,12.9
2022-09-05T02:13:17.551Z,13.1
2022-09-05T02:14:36.232Z,13.1
2022-09-05T02:15:10.151Z,13.1
2022-09-05T02:16:15.144Z,13.1
2022-09-05T02:17:08.909Z,13.1
2022-09-05T02:18:15.499Z,13.1
2022-09-05T02:19:16.595Z,13
2022-09-05T02:20:10.067Z,13
2022-09-05T02:21:19.820Z,13.1
2022-09-05T02:22:07.100Z,13.1
2022-09-05T02:23:45.900Z,13
2022-09-05T02:24:15.101Z,12.9
2022-09-05T02:26:05.712Z,12.9
2022-09-05T02:28:08.740Z,13
2022-09-05T02:29:30.397Z,13
2022-09-05T02:30:15.833Z,13
2022-09-05T02:31:25.042Z,12.9
2022-09-05T02:32:17.008Z,12.9
2022-09-05T02:33:16.276Z,13
2022-09-05T02:34:16.479Z,13
2022-09-05T02:35:08.139Z,13
2022-09-05T02:36:21.744Z,12.9
2022-09-05T02:37:16.853Z,12.9
2022-09-05T02:45:26.531Z,12.9
2022-09-05T02:45:28.038Z,12.9
2022-09-05T02:46:07.766Z,12.8
2022-09-05T02:47:18.194Z,12.7
2022-09-05T02:48:20.423Z,12.7
2022-09-05T02:57:47.707Z,12.6
2022-09-05T02:58:08.900Z,12.6
2022-09-05T02:59:15.884Z,12.8
2022-09-05T03:00:14.813Z,12.8
2022-09-05T03:01:13.982Z,12.8
2022-09-05T03:02:30.584Z,12.8
2022-09-05T03:03:10.483Z,12.8
2022-09-05T03:04:16.871Z,12.9
2022-09-05T03:05:13.858Z,12.9
2022-09-05T03:06:25.962Z,13.1
2022-09-05T03:07:06.693Z,13.1
2022-09-05T03:08:18.490Z,12.9
2022-09-05T03:09:21.303Z,12.9
2022-09-05T03:10:10.321Z,12.9
2022-09-05T03:11:12.631Z,12.9
2022-09-05T03:12:33.866Z,12.9
2022-09-05T03:13:16.967Z,12.8
2022-09-05T03:14:08.380Z,12.8
2022-09-05T03:15:26.393Z,12.9
2022-09-05T03:16:09.420Z,12.9
2022-09-05T03:17:18.644Z,12.9
2022-09-05T03:18:24.792Z,12.9
2022-09-05T03:19:16.904Z,12.9
2022-09-05T03:20:07.829Z,12.9
2022-09-05T03:21:14.657Z,13
2022-09-05T03:22:15.562Z,13
2022-09-05T03:23:10.533Z,13.1
2022-09-05T03:24:15.362Z,13.1
2022-09-05T03:25:11.504Z,13.1
2022-09-05T03:26:14.540Z,13.2
2022-09-05T03:27:13.007Z,13.2
2022-09-05T03:28:17.468Z,13.1
2022-09-05T03:29:08.621Z,13.1
2022-09-05T03:30:10.136Z,13.1
2022-09-05T03:31:26.332Z,13.1
2022-09-05T03:32:10.519Z,13.1
2022-09-05T03:33:15.668Z,13.1
2022-09-05T03:34:13.516Z,13.1
2022-09-05T03:35:17.097Z,13.1
2022-09-05T03:36:12.406Z,13.1
2022-09-05T03:37:18.019Z,13.1
2022-09-05T03:38:06.144Z,12.8
2022-09-05T03:39:14.622Z,12.9
2022-09-05T03:40:20.176Z,12.9
2022-09-05T03:41:12.093Z,12.8
2022-09-05T03:42:21.080Z,12.8
2022-09-05T03:43:11.279Z,12.9
2022-09-05T03:44:11.356Z,12.9
2022-09-05T03:45:15.470Z,12.8
2022-09-05T03:46:15.702Z,12.8
2022-09-05T03:47:14.184Z,12.8
2022-09-05T03:48:32.334Z,12.9
2022-09-05T03:57:31.668Z,12.9
2022-09-05T03:57:36.834Z,13
2022-09-05T03:58:28.095Z,12.9
2022-09-05T04:00:14.153Z,12.9
2022-09-05T04:08:29.409Z,12.8
2022-09-05T04:08:42.544Z,13
2022-09-05T04:10:09.607Z,12.9
2022-09-05T04:11:15.527Z,12.9
2022-09-05T04:12:15.783Z,12.9
2022-09-05T04:13:09.092Z,12.9
2022-09-05T04:14:16.797Z,13
2022-09-05T04:15:11.514Z,13.1
2022-09-05T04:16:17.118Z,13.2
2022-09-05T04:17:12.823Z,13.2
2022-09-05T04:18:35.577Z,13.3
2022-09-05T04:19:07.434Z,13.3
2022-09-05T04:20:17.478Z,13.2
2022-09-05T04:21:10.464Z,13.2
2022-09-05T04:22:18.192Z,13
2022-09-05T04:23:07.904Z,13
2022-09-05T04:24:16.216Z,12.9
2022-09-05T04:25:20.798Z,12.9
2022-09-05T04:26:15.972Z,12.9
2022-09-05T04:27:12.802Z,12.8
2022-09-05T04:28:13.972Z,12.8
2022-09-05T04:29:17.791Z,12.8
2022-09-05T04:30:42.776Z,12.8
2022-09-05T04:31:16.878Z,12.8
2022-09-05T04:32:23.681Z,12.7
2022-09-05T04:33:15.816Z,12.8
2022-09-05T04:34:13.118Z,12.8
2022-09-05T04:35:19.943Z,12.6
2022-09-05T04:36:21.910Z,12.6
2022-09-05T04:37:15.981Z,12.6
2022-09-05T04:38:10.194Z,12.6
2022-09-05T04:39:13.475Z,12.7
2022-09-05T04:40:13.141Z,12.7
2022-09-05T04:41:13.133Z,12.8
2022-09-05T04:42:14.139Z,12.8
2022-09-05T04:43:15.210Z,12.9
2022-09-05T04:44:13.055Z,12.9
2022-09-05T04:45:13.845Z,12.9
2022-09-05T04:46:19.248Z,12.9
2022-09-05T04:47:17.876Z,12.8
2022-09-05T04:48:20.138Z,12.8
2022-09-05T04:49:12.653Z,12.8
2022-09-05T04:50:25.625Z,12.9
2022-09-05T04:51:13.565Z,12.9
2022-09-05T04:52:33.728Z,12.9
2022-09-05T04:53:10.845Z,12.9
2022-09-05T04:54:14.470Z,12.9
2022-09-05T04:55:14.661Z,12.9
2022-09-05T04:56:15.974Z,13.1
2022-09-05T04:57:18.256Z,13.1
2022-09-05T04:58:16.660Z,13
2022-09-05T05:06:42.169Z,13.1
2022-09-05T05:06:47.065Z,13.1
2022-09-05T05:07:07.694Z,13.1
2022-09-05T05:08:14.025Z,13.1
2022-09-05T05:09:16.239Z,13.1
2022-09-05T05:18:39.057Z,13.2
2022-09-05T05:18:42.675Z,13.2
2022-09-05T05:20:46.573Z,13.3
2022-09-05T05:22:12.650Z,13.3
2022-09-05T05:23:15.597Z,13.4
2022-09-05T05:24:13.278Z,13.4
2022-09-05T05:25:13.423Z,13.4
2022-09-05T05:26:12.143Z,13.5
2022-09-05T05:27:15.527Z,13.6
2022-09-05T05:28:36.800Z,13.6
2022-09-05T05:29:19.869Z,13.6
2022-09-05T05:30:12.696Z,13.7
2022-09-05T05:31:13.822Z,13.6
2022-09-05T05:32:34.672Z,13.6
2022-09-05T05:33:13.415Z,13.8
2022-09-05T05:34:28.023Z,13.8
2022-09-05T05:35:14.826Z,13.8
2022-09-05T05:36:15.725Z,13.8
2022-09-05T05:37:15.911Z,13.9
2022-09-05T05:38:13.713Z,13.9
2022-09-05T05:39:16.875Z,14
2022-09-05T05:40:10.624Z,14
2022-09-05T05:41:15.062Z,14
2022-09-05T05:42:25.310Z,14.1
2022-09-05T05:43:16.760Z,14.3
2022-09-05T05:44:15.225Z,14.3
2022-09-05T05:45:16.335Z,14.7
2022-09-05T05:46:13.565Z,14.7
2022-09-05T05:47:10.888Z,14.6
2022-09-05T05:48:12.903Z,14.6
2022-09-05T05:49:15.752Z,14.6
2022-09-05T05:50:15.634Z,14.6
2022-09-05T05:51:15.205Z,14.6
2022-09-05T05:52:15.711Z,14.6
2022-09-05T05:53:41.065Z,14.6
2022-09-05T05:54:13.346Z,14.6
2022-09-05T05:55:55.712Z,14.7
2022-09-05T05:57:19.336Z,14.8
2022-09-05T05:58:13.418Z,14.8
2022-09-05T05:59:13.941Z,14.8
2022-09-05T06:00:29.495Z,14.8
2022-09-05T06:01:40.352Z,14.8
2022-09-05T06:02:14.007Z,14.9
2022-09-05T06:03:30.370Z,15
2022-09-05T06:04:16.461Z,15
2022-09-05T06:05:16.461Z,15.1
2022-09-05T06:06:14.220Z,15.1
2022-09-05T06:07:14.560Z,15.2
2022-09-05T06:16:12.148Z,15.5
2022-09-05T06:17:23.986Z,15.6
2022-09-05T06:18:15.410Z,15.6
2022-09-05T06:19:07.776Z,15.6
2022-09-05T06:22:18.096Z,15.7
2022-09-05T06:22:21.187Z,15.7
2022-09-05T06:23:42.569Z,15.8
2022-09-05T06:24:16.432Z,15.8
2022-09-05T06:25:21.478Z,15.9
2022-09-05T06:26:14.676Z,16
2022-09-05T06:27:07.050Z,16
2022-09-05T06:28:23.419Z,16
2022-09-05T06:29:13.461Z,16.1
2022-09-05T06:30:13.761Z,16.1
2022-09-05T06:31:35.408Z,16.2
2022-09-05T06:32:10.433Z,16.2
2022-09-05T06:33:11.378Z,16.2
2022-09-05T06:34:38.005Z,16.3
2022-09-05T06:35:12.943Z,16.3
2022-09-05T06:36:13.787Z,16.3
2022-09-05T06:37:12.536Z,16.4
2022-09-05T06:38:16.131Z,16.4
2022-09-05T06:39:15.212Z,16.4
2022-09-05T06:40:08.483Z,16.4
2022-09-05T06:41:16.894Z,16.6
2022-09-05T06:42:45.950Z,16.6
2022-09-05T06:43:12.159Z,16.6
2022-09-05T06:44:13.886Z,16.6
2022-09-05T06:45:32.623Z,16.6
2022-09-05T06:47:22.575Z,16.8
2022-09-05T06:47:37.822Z,16.8
2022-09-05T06:49:42.921Z,16.8
2022-09-05T06:50:30.989Z,16.8
2022-09-05T06:51:14.068Z,16.9
2022-09-05T06:52:33.103Z,16.9
2022-09-05T06:53:25.049Z,16.9
2022-09-05T06:54:15.121Z,17
2022-09-05T06:55:14.564Z,17
2022-09-05T06:56:28.542Z,17.1
2022-09-05T06:57:06.882Z,17.1
2022-09-05T06:58:16.121Z,17.2
2022-09-05T06:59:14.172Z,17.2
2022-09-05T07:00:26.530Z,17.3
2022-09-05T07:01:13.018Z,17.3
2022-09-05T07:02:15.630Z,17.3
2022-09-05T07:03:17.861Z,17.3
2022-09-05T07:05:44.699Z,17.3
2022-09-05T07:05:47.112Z,17.4
2022-09-05T07:06:21.914Z,17.4
2022-09-05T07:07:19.154Z,17.5
2022-09-05T07:08:39.391Z,17.5
2022-09-05T07:09:14.180Z,17.6
2022-09-05T07:10:41.547Z,17.5
2022-09-05T07:11:19.921Z,17.6
2022-09-05T07:12:13.173Z,17.6
2022-09-05T07:13:12.022Z,17.7
2022-09-05T07:14:18.367Z,17.7
2022-09-05T07:15:13.248Z,17.7
2022-09-05T07:16:14.687Z,17.9
2022-09-05T07:17:07.291Z,17.9
2022-09-05T07:18:16.437Z,17.9
2022-09-05T07:19:09.530Z,17.9
2022-09-05T07:20:24.126Z,18
2022-09-05T07:21:28.519Z,18.1
2022-09-05T07:22:51.547Z,18.1
2022-09-05T07:24:13.498Z,18.1
2022-09-05T07:24:16.254Z,18.1
2022-09-05T07:26:55.057Z,18.1
2022-09-05T07:28:34.269Z,18.2
2022-09-05T07:29:16.964Z,18.3
2022-09-05T07:30:14.839Z,18.3
2022-09-05T07:31:11.325Z,18.4
2022-09-05T07:32:14.182Z,18.4
2022-09-05T07:33:13.541Z,18.4
2022-09-05T07:34:25.742Z,18.6
2022-09-05T07:35:13.132Z,18.7
2022-09-05T07:36:15.147Z,18.8
2022-09-05T07:37:20.536Z,18.8
2022-09-05T07:38:07.307Z,18.8
2022-09-05T07:39:32.711Z,18.8
2022-09-05T07:40:29.547Z,18.6
2022-09-05T07:41:13.321Z,18.8
2022-09-05T07:42:12.579Z,18.8
2022-09-05T07:43:17.050Z,18.8
2022-09-05T07:44:16.802Z,18.9
2022-09-05T07:45:09.648Z,18.9
2022-09-05T07:46:15.109Z,18.9
2022-09-05T07:47:13.909Z,18.9
2022-09-05T07:48:15.700Z,18.9
2022-09-05T07:49:14.756Z,18.9
2022-09-05T07:57:29.889Z,18.9
2022-09-05T07:58:06.383Z,19.3
2022-09-05T07:59:13.096Z,19.5
2022-09-05T08:00:31.782Z,19.5
2022-09-05T08:01:07.013Z,19.5
2022-09-05T08:02:16.707Z,19.4
2022-09-05T08:03:14.704Z,19.4
2022-09-05T08:04:12.480Z,19.4
2022-09-05T08:05:15.550Z,19.4
2022-09-05T08:06:13.339Z,19.4
2022-09-05T08:07:54.087Z,19.4
2022-09-05T08:10:17.441Z,19.5
2022-09-05T08:10:17.980Z,19.6
2022-09-05T08:12:18.038Z,19.6
2022-09-05T08:13:29.623Z,19.7
2022-09-05T08:14:48.688Z,19.7
2022-09-05T08:15:20.722Z,20
2022-09-05T08:16:17.412Z,20
2022-09-05T08:17:16.387Z,20.1
2022-09-05T08:18:14.837Z,20.1
2022-09-05T08:19:15.017Z,20.2
2022-09-05T08:20:12.681Z,20.2
2022-09-05T08:21:15.866Z,20.4
2022-09-05T08:22:13.045Z,20.3
2022-09-05T08:23:13.286Z,20.4
2022-09-05T08:24:17.102Z,20.4
2022-09-05T08:25:21.178Z,20.3
2022-09-05T08:26:09.514Z,20.2
2022-09-05T08:27:20.781Z,20.1
2022-09-05T08:28:11.683Z,20.2
2022-09-05T08:29:18.840Z,20.2
2022-09-05T08:30:30.900Z,20.2
2022-09-05T08:32:14.715Z,20.4
2022-09-05T08:33:15.777Z,20.4
2022-09-05T08:34:14.762Z,20.5
2022-09-05T08:35:14.024Z,20.5
2022-09-05T08:36:12.014Z,20.5
2022-09-05T08:37:06.811Z,20.5
2022-09-05T08:38:15.971Z,20.6
2022-09-05T08:39:15.764Z,20.6
2022-09-05T08:40:15.806Z,20.6
2022-09-05T08:41:10.303Z,20.8
2022-09-05T08:42:18.057Z,21.1
2022-09-05T08:46:49.541Z,21.3
2022-09-05T08:46:51.463Z,21.2
2022-09-05T08:47:09.130Z,21.3
2022-09-05T08:48:15.013Z,21.4
2022-09-05T08:50:08.095Z,21.4
2022-09-05T08:50:16.263Z,21.3
2022-09-05T08:51:14.036Z,21.3
2022-09-05T08:52:17.619Z,21.3
2022-09-05T08:53:50.196Z,21.3
2022-09-05T08:55:14.925Z,21.4
2022-09-05T08:56:20.580Z,21.6
2022-09-05T08:57:15.033Z,21.6
2022-09-05T08:58:08.732Z,21.9
2022-09-05T08:59:34.910Z,21.9
2022-09-05T09:00:33.486Z,22.2
2022-09-05T09:01:16.077Z,22.3
2022-09-05T09:02:51.451Z,22.3
2022-09-05T09:03:28.127Z,22.6
2022-09-05T09:04:13.561Z,22.6
2022-09-05T09:05:18.501Z,22.4
2022-09-05T09:06:19.218Z,22.6
2022-09-05T09:07:54.890Z,22.5
2022-09-05T09:08:13.193Z,22.6
2022-09-05T09:09:12.403Z,22.6
2022-09-05T09:10:26.077Z,22.8
2022-09-05T09:11:15.520Z,22.9
2022-09-05T09:12:13.621Z,22.9
2022-09-05T09:13:16.501Z,22.6
2022-09-05T09:14:29.626Z,22.6
2022-09-05T09:15:12.155Z,22.9
2022-09-05T09:16:08.669Z,22.8
2022-09-05T09:17:14.315Z,22.4
2022-09-05T09:18:14.495Z,22.3
2022-09-05T09:19:12.195Z,22.3
2022-09-05T09:20:13.772Z,22.3
2022-09-05T09:21:12.450Z,22.3
2022-09-05T09:22:12.289Z,22.7
2022-09-05T09:23:36.814Z,22.7
2022-09-05T09:24:09.015Z,22.4
2022-09-05T09:25:26.527Z,22.5
2022-09-05T09:26:17.578Z,22.8
2022-09-05T09:27:19.070Z,22.9
2022-09-05T09:28:54.230Z,22.8
2022-09-05T09:30:13.077Z,22.9
2022-09-05T09:31:12.599Z,22.7
2022-09-05T09:32:13.867Z,22.9
2022-09-05T09:33:11.423Z,22.9
2022-09-05T09:34:19.169Z,22.8
2022-09-05T09:35:09.774Z,22.8
2022-09-05T09:36:12.180Z,23
2022-09-05T09:37:13.774Z,23.2
2022-09-05T09:38:12.365Z,23.2
2022-09-05T09:39:42.863Z,23.3
2022-09-05T09:40:13.016Z,23.3
2022-09-05T09:41:08.379Z,23.6
2022-09-05T09:42:36.976Z,23.6
2022-09-05T09:43:11.565Z,23.6
2022-09-05T09:44:15.637Z,23.7
2022-09-05T09:45:32.571Z,23.7
2022-09-05T09:46:18.347Z,23.8
2022-09-05T09:47:14.600Z,23.8
2022-09-05T09:48:13.414Z,23.9
2022-09-05T09:49:27.638Z,23.9
2022-09-05T09:50:12.979Z,23.9
2022-09-05T09:51:14.411Z,23.9
2022-09-05T09:52:25.357Z,24.1
2022-09-05T09:53:14.954Z,24.1
2022-09-05T09:54:16.096Z,24.3
2022-09-05T09:55:28.468Z,24.3
2022-09-05T09:56:15.210Z,24.6
2022-09-05T09:57:16.768Z,24.6
2022-09-05T09:58:07.394Z,24.6
2022-09-05T09:59:17.430Z,24.5
2022-09-05T10:00:14.137Z,24.5
2022-09-05T10:01:39.772Z,24.2
2022-09-05T10:11:33.750Z,24.2
2022-09-05T10:11:33.804Z,24.2
2022-09-05T10:11:48.488Z,24.2
2022-09-05T10:11:54.452Z,24.1
2022-09-05T10:13:20.493Z,24.4
2022-09-05T10:14:53.629Z,24.4
2022-09-05T10:15:35.672Z,24.4
2022-09-05T10:16:16.259Z,24.4
2022-09-05T10:17:19.002Z,24.4
2022-09-05T10:18:12.877Z,24.4
2022-09-05T10:19:13.983Z,24
2022-09-05T10:20:16.519Z,23.9
2022-09-05T10:21:21.399Z,23.9
2022-09-05T10:22:44.749Z,24.4
2022-09-05T10:23:13.609Z,24.4
2022-09-05T10:24:08.980Z,24.6
2022-09-05T10:25:23.325Z,24.1
2022-09-05T10:26:13.911Z,24.1
2022-09-05T10:27:13.117Z,24.1
2022-09-05T10:28:16.590Z,24.1
2022-09-05T10:29:41.922Z,24.3
2022-09-05T10:30:15.991Z,24.3
2022-09-05T10:36:19.673Z,25.2
2022-09-05T10:37:21.006Z,25
2022-09-05T10:38:14.625Z,25
2022-09-05T10:39:17.917Z,25.1
2022-09-05T10:40:14.626Z,25.1
2022-09-05T10:41:25.728Z,25.1
2022-09-05T10:42:16.769Z,25.1
2022-09-05T10:43:14.519Z,25
2022-09-05T10:44:16.407Z,25.1
2022-09-05T10:45:17.986Z,25.1
2022-09-05T10:46:57.299Z,24.9
2022-09-05T10:47:14.732Z,24.5
2022-09-05T10:48:17.627Z,24.7
2022-09-05T10:49:07.951Z,24.7
2022-09-05T10:50:17.321Z,25.1
2022-09-05T10:51:30.271Z,25.1
2022-09-05T10:52:23.292Z,25.1
2022-09-05T10:53:25.631Z,25.1
2022-09-05T10:54:06.907Z,25.1
2022-09-05T10:55:20.315Z,25.1
2022-09-05T10:56:16.920Z,25
2022-09-05T10:57:16.423Z,24.9
2022-09-05T11:01:54.319Z,24.8
2022-09-05T11:02:41.117Z,25.7
2022-09-05T11:02:41.142Z,24.8
2022-09-05T11:03:24.914Z,25.7
2022-09-05T11:04:15.472Z,25.7
2022-09-05T11:05:14.739Z,25.6
2022-09-05T11:06:13.762Z,25.6
2022-09-05T11:07:16.044Z,25.4
2022-09-05T11:08:12.959Z,25.4
2022-09-05T11:09:20.819Z,25.6
2022-09-05T11:10:10.617Z,25.6
2022-09-05T11:11:37.156Z,25.3
2022-09-05T11:12:14.938Z,25.3
2022-09-05T11:13:14.392Z,25.1
2022-09-05T11:14:28.864Z,25.3
2022-09-05T11:15:13.244Z,25.3
2022-09-05T11:16:17.823Z,25.3
2022-09-05T11:17:14.611Z,25.4
2022-09-05T11:18:14.385Z,25.4
2022-09-05T11:19:14.979Z,25.2
2022-09-05T11:20:37.158Z,24.9
2022-09-05T11:21:16.351Z,24.9
2022-09-05T11:22:27.860Z,24.9
2022-09-05T11:23:07.498Z,24.9
2022-09-05T11:24:19.182Z,25.3
2022-09-05T11:25:16.621Z,25.3
2022-09-05T11:26:14.387Z,25.4
2022-09-05T11:27:28.870Z,25.4
2022-09-05T11:28:16.194Z,25.4
2022-09-05T11:29:16.043Z,25.5
2022-09-05T11:30:42.369Z,25.5
2022-09-05T11:31:08.517Z,25.4
2022-09-05T11:40:41.807Z,25.7
2022-09-05T11:41:24.968Z,25.8
2022-09-05T11:42:17.016Z,25.5
2022-09-05T11:43:06.739Z,25.5
2022-09-05T11:44:30.132Z,25.9
2022-09-05T11:45:12.200Z,25.9
2022-09-05T11:46:17.070Z,26.1
2022-09-05T11:47:43.610Z,25.9
2022-09-05T11:48:15.484Z,25.8
2022-09-05T11:49:13.861Z,25.7
2022-09-05T11:50:16.200Z,25.9
2022-09-05T11:51:12.774Z,25.9
2022-09-05T11:52:15.536Z,26.5
2022-09-05T11:53:15.069Z,25.9
2022-09-05T11:54:13.921Z,25.9
2022-09-05T11:55:25.784Z,26.3
2022-09-05T11:56:13.661Z,26.3
2022-09-05T11:57:37.170Z,26.3
2022-09-05T11:58:49.595Z,26.1
2022-09-05T11:59:34.922Z,26.1
2022-09-05T12:00:36.730Z,26.1
2022-09-05T12:02:28.050Z,26.1
2022-09-05T12:03:58.330Z,26.3
2022-09-05T12:04:18.292Z,26.3
2022-09-05T12:06:01.601Z,26.5
2022-09-05T12:07:34.525Z,26.6
2022-09-05T12:08:17.408Z,26.5
2022-09-05T12:09:17.284Z,26.5
2022-09-05T12:10:50.170Z,26.5
2022-09-05T12:11:17.996Z,26.1
2022-09-05T12:12:45.589Z,26.1
2022-09-05T12:13:14.274Z,26.1
2022-09-05T12:14:29.454Z,25.8
2022-09-05T12:15:17.095Z,25.7
2022-09-05T12:16:26.656Z,25.7
2022-09-05T12:18:26.240Z,26.2
2022-09-05T12:19:25.006Z,26.4
2022-09-05T12:21:21.666Z,26.3
2022-09-05T12:22:26.150Z,26.5
2022-09-05T12:27:49.852Z,26.5
2022-09-05T12:27:49.901Z,26.8
2022-09-05T12:29:43.699Z,27
2022-09-05T12:29:46.824Z,27
2022-09-05T12:38:44.681Z,26.6
2022-09-05T12:39:44.677Z,26.4
2022-09-05T12:41:40.459Z,26.5
2022-09-05T12:41:48.304Z,26.4
2022-09-05T12:44:48.207Z,26.6
2022-09-05T12:44:50.306Z,26.8
2022-09-05T12:46:28.380Z,26.8
2022-09-05T12:47:25.052Z,26.8
2022-09-05T12:48:13.083Z,26.8
2022-09-05T12:49:13.178Z,26.9
2022-09-05T12:50:19.655Z,26.9
2022-09-05T12:51:48.627Z,27.1
2022-09-05T12:52:16.112Z,27
2022-09-05T12:53:11.680Z,26.9
2022-09-05T12:54:37.527Z,26.6
2022-09-05T12:55:12.729Z,26.6
2022-09-05T13:03:28.954Z,26.6
2022-09-05T13:03:30.259Z,26.8
2022-09-05T13:04:31.452Z,26.9
2022-09-05T13:06:29.131Z,26.9
2022-09-05T13:07:14.226Z,26.7
2022-09-05T13:08:12.650Z,26.7
2022-09-05T13:09:13.544Z,26.7
2022-09-05T13:15:18.511Z,26.7
2022-09-05T13:15:22.592Z,26.8
2022-09-05T13:16:27.079Z,26.8
2022-09-05T13:17:08.464Z,26.8
2022-09-05T13:18:12.480Z,26.8
2022-09-05T13:19:15.217Z,26.8
2022-09-05T13:20:15.728Z,26.8
2022-09-05T13:21:25.089Z,26.8
2022-09-05T13:22:14.880Z,26.9
2022-09-05T13:23:16.467Z,26.8
2022-09-05T13:24:17.564Z,26.8
2022-09-05T13:25:19.018Z,26.7
2022-09-05T13:26:07.298Z,26.7
2022-09-05T13:27:16.669Z,26.8
2022-09-05T13:28:12.990Z,26.6
2022-09-05T13:29:15.392Z,26.6
2022-09-05T13:40:09.810Z,26.7
2022-09-05T13:41:31.102Z,26.7
2022-09-05T13:42:17.369Z,26.8
2022-09-05T13:43:17.588Z,26.8
2022-09-05T13:44:31.518Z,26.8
2022-09-05T13:45:20.948Z,26.8
2022-09-05T13:46:08.456Z,26.8
2022-09-05T13:47:33.517Z,26.9
2022-09-05T13:48:15.100Z,26.8
2022-09-05T13:49:36.130Z,26.8
2022-09-05T13:50:17.044Z,26.8
2022-09-05T13:51:12.856Z,26.9
2022-09-05T13:52:16.910Z,26.9
2022-09-05T13:53:17.714Z,26.5
2022-09-05T13:54:17.432Z,26.5
2022-09-05T13:55:16.614Z,26.4
2022-09-05T13:56:09.660Z,26.4
2022-09-05T13:57:21.573Z,26.4
2022-09-05T13:58:15.787Z,26.4
2022-09-05T13:59:15.423Z,26.4
2022-09-05T14:00:31.141Z,26.4
2022-09-05T14:01:13.875Z,26.5
2022-09-05T14:02:31.464Z,26.6
2022-09-05T14:03:42.646Z,26.6
2022-09-05T14:05:22.963Z,26.4
2022-09-05T14:06:51.679Z,26.6
2022-09-05T14:07:46.744Z,26.6
2022-09-05T14:08:14.887Z,26.6
2022-09-05T14:09:46.609Z,26.6
2022-09-05T14:11:10.237Z,26.6
2022-09-05T14:12:18.351Z,26.7
2022-09-05T14:13:08.257Z,26.7
2022-09-05T14:15:16.494Z,26.9
2022-09-05T14:16:19.296Z,26.9
2022-09-05T14:17:55.390Z,26.9
2022-09-05T14:18:25.927Z,26.8
2022-09-05T14:19:22.474Z,26.8
2022-09-05T14:20:15.059Z,26.9
2022-09-05T14:21:17.749Z,26.7
2022-09-05T14:22:06.635Z,26.7
2022-09-05T14:23:17.605Z,26.8
2022-09-05T14:24:12.455Z,26.8
2022-09-05T14:25:15.505Z,26.6
2022-09-05T14:26:19.110Z,26.6
2022-09-05T14:27:11.484Z,26.7
2022-09-05T14:28:16.621Z,26.7
2022-09-05T14:29:07.960Z,26.8
2022-09-05T14:38:03.861Z,26.8
2022-09-05T14:38:03.950Z,26.8
2022-09-05T14:39:10.769Z,26.4
2022-09-05T14:40:35.041Z,26.4
2022-09-05T14:41:17.306Z,26.3
2022-09-05T14:42:13.755Z,26.4
2022-09-05T14:43:28.729Z,26.6
2022-09-05T14:44:17.746Z,26.6
2022-09-05T14:45:17.671Z,26.6
2022-09-05T14:46:13.709Z,26.9
2022-09-05T14:47:39.904Z,26.8
2022-09-05T14:48:07.863Z,26.8
2022-09-05T14:49:18.224Z,26.8
2022-09-05T14:50:23.278Z,26.8
2022-09-05T14:51:29.489Z,27
2022-09-05T14:52:07.698Z,26.9
2022-09-05T14:54:04.678Z,26.8
2022-09-05T14:55:23.991Z,26.4
2022-09-05T15:03:02.894Z,26.3
2022-09-05T15:03:03.456Z,26.5
2022-09-05T15:04:46.785Z,26.6
2022-09-05T15:05:15.952Z,26.6
2022-09-05T15:06:16.663Z,26.6
2022-09-05T15:07:17.519Z,26.6
2022-09-05T15:12:19.165Z,26.6
2022-09-05T15:12:45.401Z,26.6
2022-09-05T15:12:45.446Z,26.4
2022-09-05T15:12:47.477Z,26.6
2022-09-05T15:14:14.662Z,26.4
2022-09-05T15:15:08.627Z,26.4
2022-09-05T15:16:19.350Z,26.4
2022-09-05T15:17:21.153Z,26.4
2022-09-05T15:18:13.881Z,26.4
2022-09-05T15:19:14.639Z,26.4
2022-09-05T15:20:21.124Z,26.4
2022-09-05T15:21:30.823Z,26.4
2022-09-05T15:22:17.816Z,26.3
2022-09-05T15:23:28.101Z,26.3
2022-09-05T15:24:18.621Z,26.3
2022-09-05T15:25:21.676Z,26.3
2022-09-05T15:26:07.593Z,26.3
2022-09-05T15:27:12.683Z,26.4
2022-09-05T15:28:15.917Z,26.2
2022-09-05T15:29:18.046Z,26.3
2022-09-05T15:30:18.324Z,26.3
2022-09-05T15:31:15.170Z,26.2
2022-09-05T15:32:14.056Z,26.2
2022-09-05T15:33:14.169Z,26.2
2022-09-05T15:34:14.342Z,26.2
2022-09-05T15:35:18.392Z,26.1
2022-09-05T15:36:17.524Z,26.2
2022-09-05T15:37:26.429Z,26.2
2022-09-05T15:38:13.431Z,26.2
2022-09-05T15:39:16.138Z,26.2
2022-09-05T15:40:28.204Z,26.2
2022-09-05T15:41:16.280Z,26.2
2022-09-05T15:42:13.950Z,26
2022-09-05T15:43:19.423Z,25.9
2022-09-05T15:44:14.337Z,26
2022-09-05T15:45:14.646Z,26
2022-09-05T15:46:15.413Z,25.9
2022-09-05T15:47:15.443Z,25.9
2022-09-05T15:48:20.491Z,25.9
2022-09-05T15:49:14.504Z,25.9
2022-09-05T15:50:26.633Z,25.8
2022-09-05T15:51:14.865Z,25.8
2022-09-05T15:52:17.991Z,25.9
2022-09-05T15:53:10.273Z,26.1
2022-09-05T15:54:41.089Z,26.1
2022-09-05T15:55:13.480Z,26
2022-09-05T15:56:16.692Z,26
2022-09-05T15:57:07.816Z,25.8
2022-09-05T15:58:13.471Z,25.8
2022-09-05T15:59:16.383Z,25.9
2022-09-05T16:00:14.536Z,25.9
2022-09-05T16:02:01.815Z,25.9
2022-09-05T16:10:55.895Z,25.8